Strona główna
METAR-TAF:

METAR-TAF

Lotnisko :

Port lotniczy Southampton

Southampton, Anglia

Szerokość geograficzna: 50-54N, Długość geograficzna: 001-24W, wysokość: 9 m

Aktualna obserwacja pogody

Raport powstał 13 minut temu, godzina 21:20 UTC
Wiatr 4 kt od północno-północny wschód, zmienny między północ i wschodnio-północny wschód
Temperatura 6°C
Wilgotność 87%
Ciśnienie 1027 hPa
Widzialność: 9000 m
Przerywane chmury na wysokości 1000 ft

METAR: EGHI 232120Z 03004KT 360V070 9000 BKN010 06/04 Q1027

czas: 21:33 (21:33 UTC)

Prognoza

Raport powstał 1 godzina i 34 minut temu, godzina 19:59 UTC
Prognoza ważna od 23 godzina 21 UTC do 23 godzina 23 UTC
Wiatr 3 kt od wschodnio-północny wschód
Widzialność 10 km lub więcej
Rozproszone chmury na wysokości 900 ft
Przerywane chmury na wysokości 1200 ft
Przejściowo
od 23 godzina 21 UTC do 23 godzina 23 UTC
Widzialność: 7000 m
Przerywane chmury na wysokości 900 ft

TAF: EGHI 231959Z 2321/2323 06003KT 9999 SCT009 BKN012 TEMPO 2321/2323 7000 BKN009

Obserwacja i prognoza pogody dla ponad 4000 lotnisk (raport METAR i TAF).

Dostępne stacje oznaczono żółtymi i czerwonymi punktami na mapie.

Najedź kursorem aby zobaczyć nazwę stacji.

Kliknij aby zobaczyć obserwacje i prognozy pogody.

Aby zmienić mapę: kliknij na zielony przycisk z czarnym krzyżykiem, aby powiększyć; na zielony przycisk z myślnikiem, aby pomniejszyć; na zielone strzałki, aby przejść do map sąsiednich.


METAR-TAF: